KWRB/WRB METAR and TAF weather

Enter ICAO airport designator
Station Type Date Time Source
KWRB METAR 2021/10/22 19:56 UTC NOAA

KWRB 221956Z AUTO 29010KT 10SM CLR 27/11 A2996 RMK AO2 SLP146 T02730105


Station Type Date Time Source
KWRB Decoded METAR 2021/10/22 19:56 UTC NOAA

Warner Robins Air Force Base, GA, United States (KWRB) 32-38N 083-36W
Oct 22, 2021 - 03:56 PM EDT / 2021.10.22 1956 UTC
Wind: from the WNW (290 degrees) at 12 MPH (10 KT):0
Visibility: 10 mile(s):0
Sky conditions: clear
Temperature: 81.1 F (27.3 C)
Dew Point: 50.9 F (10.5 C)
Relative Humidity: 34%
Pressure (altimeter): 29.96 in. Hg (1014 hPa)
ob: KWRB 221956Z AUTO 29010KT 10SM CLR 27/11 A2996 RMK AO2 SLP146 T02730105
cycle: 20

Station Type Date Time Source
KWRB TAF 2021/10/22 16:10 UTC NOAA

TAF KWRB 221600Z 2216/2322 30010G15KT 9999 SCT250 QNH2999INS
BECMG 2221/2222 31006KT 9999 SKC QNH3001INS TX27/2220Z TN10/2311Z

Example: see airport list